createdAt,value
2022-11-27T00:01:35.351Z,7.00
2022-11-27T00:04:05.326Z,6.47
2022-11-27T00:06:34.322Z,5.07
2022-11-27T00:09:04.062Z,4.53
2022-11-27T00:11:33.189Z,4.63
2022-11-27T00:14:01.858Z,4.77
2022-11-27T00:16:30.169Z,5.03
2022-11-27T00:18:58.647Z,5.80
2022-11-27T00:21:30.067Z,4.53
2022-11-27T00:24:00.237Z,4.93
2022-11-27T00:26:34.493Z,5.33
2022-11-27T00:29:05.526Z,4.30
2022-11-27T00:31:35.048Z,5.20
2022-11-27T00:34:06.273Z,4.97
2022-11-27T00:36:36.554Z,4.13
2022-11-27T00:39:05.477Z,4.50
2022-11-27T00:41:33.688Z,5.30
2022-11-27T00:44:01.902Z,4.67
2022-11-27T00:46:31.492Z,4.33
2022-11-27T00:49:00.156Z,4.50
2022-11-27T00:51:29.271Z,5.93
2022-11-27T00:53:59.136Z,4.97
2022-11-27T00:56:28.670Z,4.23
2022-11-27T00:58:57.438Z,4.60
2022-11-27T01:01:27.636Z,4.30
2022-11-27T01:03:57.041Z,4.90
2022-11-27T01:06:26.124Z,4.30
2022-11-27T01:08:54.361Z,4.30
2022-11-27T01:11:26.658Z,4.57
2022-11-27T01:13:57.057Z,4.87
2022-11-27T01:16:27.550Z,4.23
2022-11-27T01:18:57.674Z,4.73
2022-11-27T01:21:27.290Z,4.63
2022-11-27T01:23:55.984Z,4.50
2022-11-27T01:26:26.020Z,4.60
2022-11-27T01:28:54.970Z,5.03
2022-11-27T01:31:24.756Z,4.67
2022-11-27T01:33:54.744Z,6.27
2022-11-27T01:36:23.094Z,4.33
2022-11-27T01:38:51.805Z,4.67
2022-11-27T01:41:22.319Z,6.00
2022-11-27T01:43:53.620Z,4.43
2022-11-27T01:46:39.224Z,4.73
2022-11-27T01:49:28.519Z,4.40
2022-11-27T01:52:00.721Z,4.93
2022-11-27T01:54:33.931Z,4.63
2022-11-27T01:57:07.146Z,4.50
2022-11-27T01:59:36.846Z,5.00
2022-11-27T02:02:05.422Z,5.13
2022-11-27T02:04:33.419Z,3.87
2022-11-27T02:18:53.845Z,4.80
2022-11-27T02:21:28.081Z,4.00
2022-11-27T02:24:39.204Z,4.17
2022-11-27T02:27:27.245Z,4.23
2022-11-27T02:30:00.596Z,4.17
2022-11-27T02:32:33.673Z,4.30
2022-11-27T02:35:07.595Z,4.30
2022-11-27T02:37:40.847Z,4.83
2022-11-27T02:40:14.108Z,4.17
2022-11-27T02:42:46.746Z,4.67
2022-11-27T02:45:19.977Z,4.17
2022-11-27T02:47:49.605Z,4.53
2022-11-27T02:50:22.625Z,4.30
2022-11-27T02:52:53.690Z,4.37
2022-11-27T02:55:26.238Z,4.50
2022-11-27T02:57:57.901Z,4.17
2022-11-27T03:06:02.037Z,4.33
2022-11-27T03:08:33.632Z,3.77
2022-11-27T03:11:05.314Z,4.43
2022-11-27T03:13:38.449Z,4.07
2022-11-27T03:16:14.336Z,3.50
2022-11-27T03:18:47.686Z,2.77
2022-11-27T03:21:24.492Z,3.30
2022-11-27T03:23:52.871Z,4.33
2022-11-27T03:26:20.936Z,3.27
2022-11-27T03:28:51.636Z,3.63
2022-11-27T03:31:19.774Z,3.33
2022-11-27T03:33:48.503Z,3.37
2022-11-27T03:36:19.815Z,3.30
2022-11-27T03:38:49.488Z,3.07
2022-11-27T03:41:24.073Z,3.57
2022-11-27T03:44:03.489Z,3.20
2022-11-27T03:46:41.097Z,3.30
2022-11-27T03:49:15.435Z,3.50
2022-11-27T03:51:52.897Z,2.90
2022-11-27T03:54:27.902Z,3.00
2022-11-27T03:57:00.910Z,2.97
2022-11-27T03:59:31.540Z,2.80
2022-11-27T04:01:59.785Z,3.17
2022-11-27T04:04:27.938Z,2.70
2022-11-27T04:06:57.441Z,2.90
2022-11-27T04:09:25.542Z,2.40
2022-11-27T04:11:53.609Z,2.77
2022-11-27T04:14:21.629Z,2.73
2022-11-27T04:16:49.739Z,3.03
2022-11-27T04:19:17.753Z,2.90
2022-11-27T04:21:45.791Z,3.33
2022-11-27T04:24:15.315Z,2.93
2022-11-27T04:26:43.379Z,2.53
2022-11-27T04:29:11.520Z,2.60
2022-11-27T04:31:39.922Z,3.20
2022-11-27T04:34:07.995Z,3.17
2022-11-27T04:36:39.194Z,2.80
2022-11-27T04:42:59.574Z,2.47
2022-11-27T04:45:27.694Z,2.60
2022-11-27T04:47:55.777Z,2.87
2022-11-27T04:50:23.811Z,2.57
2022-11-27T04:52:51.894Z,2.83
2022-11-27T04:55:19.993Z,3.70
2022-11-27T04:57:48.063Z,2.90
2022-11-27T05:00:18.434Z,3.03
2022-11-27T05:02:46.549Z,3.10
2022-11-27T05:05:14.698Z,2.80
2022-11-27T05:07:42.749Z,2.83
2022-11-27T05:10:11.644Z,3.50
2022-11-27T05:12:39.858Z,4.30
2022-11-27T05:15:09.435Z,3.80
2022-11-27T05:17:38.860Z,3.03
2022-11-27T05:20:08.237Z,4.03
2022-11-27T05:22:36.368Z,5.47
2022-11-27T05:25:04.735Z,3.50
2022-11-27T05:27:32.780Z,3.80
2022-11-27T05:30:00.847Z,3.80
2022-11-27T05:32:28.895Z,3.53
2022-11-27T05:34:58.319Z,3.53
2022-11-27T05:37:26.311Z,4.17
2022-11-27T05:39:54.357Z,3.23
2022-11-27T05:42:22.411Z,3.33
2022-11-27T05:44:55.276Z,3.97
2022-11-27T05:47:25.998Z,3.67
2022-11-27T05:49:54.205Z,3.87
2022-11-27T05:52:23.705Z,3.80
2022-11-27T05:54:51.737Z,3.90
2022-11-27T05:57:19.732Z,3.70
2022-11-27T05:59:47.785Z,4.00
2022-11-27T06:02:20.853Z,3.60
2022-11-27T06:04:51.940Z,4.03
2022-11-27T06:07:20.213Z,4.33
2022-11-27T06:09:49.623Z,4.80
2022-11-27T06:12:17.690Z,4.27
2022-11-27T06:14:45.777Z,3.90
2022-11-27T06:17:16.510Z,4.27
2022-11-27T06:19:44.831Z,4.07
2022-11-27T06:22:12.824Z,3.97
2022-11-27T06:24:41.164Z,4.37
2022-11-27T06:27:10.803Z,4.30
2022-11-27T06:29:39.174Z,4.63
2022-11-27T06:32:07.637Z,4.60
2022-11-27T06:34:35.807Z,4.30
2022-11-27T06:37:03.799Z,3.80
2022-11-27T06:39:31.982Z,4.57
2022-11-27T06:41:59.985Z,3.97
2022-11-27T06:44:29.486Z,3.93
2022-11-27T06:46:57.552Z,3.80
2022-11-27T06:49:25.629Z,4.47
2022-11-27T06:51:53.661Z,4.20
2022-11-27T06:54:21.701Z,4.27
2022-11-27T06:56:51.404Z,3.50
2022-11-27T06:59:19.888Z,4.00
2022-11-27T07:01:49.386Z,3.67
2022-11-27T07:04:17.961Z,4.20
2022-11-27T07:06:46.042Z,4.33
2022-11-27T07:09:14.261Z,4.57
2022-11-27T07:11:42.365Z,4.20
2022-11-27T07:14:11.681Z,4.23
2022-11-27T07:16:39.792Z,3.90
2022-11-27T07:19:09.351Z,4.73
2022-11-27T07:21:38.631Z,4.23
2022-11-27T07:24:07.346Z,4.63
2022-11-27T07:26:35.463Z,4.37
2022-11-27T07:29:03.598Z,4.33
2022-11-27T07:31:32.189Z,4.60
2022-11-27T07:34:00.359Z,4.33
2022-11-27T07:36:31.577Z,5.40
2022-11-27T07:38:59.664Z,5.27
2022-11-27T07:41:33.461Z,4.50
2022-11-27T07:44:02.399Z,4.90
2022-11-27T07:46:30.947Z,5.03
2022-11-27T07:49:00.507Z,5.13
2022-11-27T07:51:30.608Z,5.47
2022-11-27T07:54:00.258Z,5.03
2022-11-27T07:56:28.598Z,5.00
2022-11-27T07:58:57.754Z,5.30
2022-11-27T08:01:26.243Z,4.97
2022-11-27T08:03:54.379Z,4.87
2022-11-27T08:06:24.311Z,4.73
2022-11-27T08:08:56.021Z,5.57
2022-11-27T08:11:25.877Z,5.53
2022-11-27T08:13:58.008Z,5.37
2022-11-27T08:16:26.314Z,5.27
2022-11-27T08:18:54.797Z,5.30
2022-11-27T08:21:23.410Z,5.53
2022-11-27T08:23:52.847Z,5.40
2022-11-27T08:26:21.312Z,5.03
2022-11-27T08:28:49.456Z,5.07
2022-11-27T08:31:18.162Z,6.13
2022-11-27T08:33:46.302Z,5.30
2022-11-27T08:43:57.725Z,4.13
2022-11-27T08:46:25.822Z,5.50
2022-11-27T08:48:53.861Z,5.83
2022-11-27T08:51:21.980Z,5.77
2022-11-27T08:53:50.137Z,5.47
2022-11-27T08:56:19.973Z,5.47
2022-11-27T08:58:48.342Z,6.13
2022-11-27T09:01:19.773Z,5.73
2022-11-27T09:03:48.413Z,5.90
2022-11-27T09:06:18.825Z,5.63
2022-11-27T09:08:49.904Z,5.87
2022-11-27T09:11:20.486Z,6.07
2022-11-27T09:13:49.153Z,4.93
2022-11-27T09:16:20.805Z,5.40
2022-11-27T09:18:51.920Z,5.13
2022-11-27T09:21:22.272Z,5.43
2022-11-27T09:23:54.869Z,4.90
2022-11-27T09:26:23.851Z,5.27
2022-11-27T09:28:52.317Z,6.10
2022-11-27T09:31:22.988Z,4.77
2022-11-27T09:33:51.726Z,5.67
2022-11-27T09:36:21.827Z,5.93
2022-11-27T09:38:50.194Z,5.77
2022-11-27T09:41:44.637Z,5.17
2022-11-27T09:44:22.955Z,6.30
2022-11-27T09:46:54.372Z,5.43
2022-11-27T09:49:26.712Z,5.50
2022-11-27T09:52:00.476Z,6.23
2022-11-27T09:54:33.059Z,5.23
2022-11-27T09:57:01.422Z,5.37
2022-11-27T09:59:34.960Z,5.03
2022-11-27T10:02:04.525Z,6.30
2022-11-27T10:04:57.824Z,5.47
2022-11-27T10:07:31.072Z,6.03
2022-11-27T10:10:09.801Z,5.97
2022-11-27T10:12:47.852Z,6.77
2022-11-27T10:15:20.569Z,6.60
2022-11-27T10:17:56.939Z,6.43
2022-11-27T10:20:30.507Z,6.50
2022-11-27T10:23:05.001Z,5.87
2022-11-27T10:25:39.917Z,5.37
2022-11-27T10:28:18.974Z,5.47
2022-11-27T10:30:53.715Z,5.80
2022-11-27T10:33:27.820Z,5.80
2022-11-27T10:35:56.109Z,5.80
2022-11-27T10:38:27.983Z,5.63
2022-11-27T10:41:12.141Z,6.37
2022-11-27T10:43:49.738Z,5.60
2022-11-27T10:46:24.068Z,5.47
2022-11-27T10:48:53.670Z,5.40
2022-11-27T10:51:25.888Z,5.73
2022-11-27T10:53:55.397Z,5.73
2022-11-27T10:56:57.316Z,5.77
2022-11-27T10:59:32.886Z,5.97
2022-11-27T11:02:05.507Z,5.40
2022-11-27T11:04:38.404Z,5.63
2022-11-27T11:07:25.260Z,5.13
2022-11-27T11:09:54.286Z,6.37
2022-11-27T11:12:24.481Z,4.60
2022-11-27T11:14:53.796Z,6.03
2022-11-27T11:17:27.417Z,5.13
2022-11-27T11:19:56.943Z,5.80
2022-11-27T11:22:25.615Z,4.67
2022-11-27T11:24:54.932Z,5.13
2022-11-27T11:27:27.388Z,5.73
2022-11-27T11:29:59.986Z,5.63
2022-11-27T11:32:30.496Z,5.10
2022-11-27T11:35:03.600Z,6.17
2022-11-27T11:37:34.400Z,5.83
2022-11-27T11:40:06.412Z,5.30
2022-11-27T11:42:36.448Z,5.87
2022-11-27T11:45:08.504Z,5.43
2022-11-27T11:47:39.744Z,5.10
2022-11-27T11:50:14.673Z,5.57
2022-11-27T11:52:54.452Z,5.33
2022-11-27T11:55:30.471Z,5.87
2022-11-27T11:58:29.981Z,5.40
2022-11-27T12:01:25.987Z,5.50
2022-11-27T12:04:03.306Z,5.33
2022-11-27T12:06:44.575Z,5.10
2022-11-27T12:09:25.132Z,5.50
2022-11-27T12:11:58.381Z,5.17
2022-11-27T12:14:42.121Z,5.67
2022-11-27T12:17:24.030Z,6.73
2022-11-27T12:20:15.727Z,12.53
2022-11-27T12:23:17.164Z,5.20
2022-11-27T12:25:57.885Z,4.93
2022-11-27T12:28:42.606Z,4.77
2022-11-27T12:31:19.268Z,4.67
2022-11-27T12:33:59.844Z,4.43
2022-11-27T12:36:43.970Z,5.17
2022-11-27T12:39:18.861Z,4.73
2022-11-27T12:42:01.022Z,4.70
2022-11-27T12:44:38.112Z,4.47
2022-11-27T12:47:11.002Z,5.00
2022-11-27T12:49:44.802Z,4.53
2022-11-27T12:52:16.852Z,4.63
2022-11-27T12:54:51.850Z,5.40
2022-11-27T12:57:28.471Z,4.93
2022-11-27T13:00:02.072Z,4.67
2022-11-27T13:02:36.050Z,4.70
2022-11-27T13:05:07.063Z,5.60
2022-11-27T13:07:42.519Z,5.40
2022-11-27T13:10:21.779Z,4.67
2022-11-27T13:12:56.143Z,5.20
2022-11-27T13:15:29.016Z,4.83
2022-11-27T13:18:04.086Z,5.47
2022-11-27T13:20:38.021Z,4.37
2022-11-27T13:23:06.104Z,5.03
2022-11-27T13:25:38.420Z,4.50
2022-11-27T13:28:09.141Z,4.50
2022-11-27T13:30:39.417Z,4.27
2022-11-27T13:33:08.164Z,4.40
2022-11-27T13:35:42.017Z,3.93
2022-11-27T13:38:12.677Z,4.97
2022-11-27T13:40:43.408Z,4.47
2022-11-27T13:43:28.728Z,4.73
2022-11-27T13:46:05.321Z,4.93
2022-11-27T13:48:35.540Z,5.27
2022-11-27T13:51:04.974Z,4.73
2022-11-27T13:53:36.326Z,5.27
2022-11-27T13:56:05.784Z,4.03
2022-11-27T13:58:37.665Z,5.30
2022-11-27T14:01:20.542Z,4.60
2022-11-27T14:03:49.226Z,4.73
2022-11-27T14:06:24.974Z,4.63
2022-11-27T14:08:58.813Z,4.20
2022-11-27T14:11:38.231Z,5.30
2022-11-27T14:14:19.589Z,4.97
2022-11-27T14:16:59.456Z,4.43
2022-11-27T14:19:34.454Z,5.10
2022-11-27T14:22:03.364Z,4.87
2022-11-27T14:24:43.902Z,5.43
2022-11-27T14:27:21.409Z,4.57
2022-11-27T14:29:51.904Z,5.40
2022-11-27T14:32:21.604Z,4.80
2022-11-27T14:34:53.074Z,4.30
2022-11-27T14:37:55.052Z,4.70
2022-11-27T14:40:25.908Z,5.00
2022-11-27T14:42:56.723Z,4.77
2022-11-27T14:45:24.930Z,5.00
2022-11-27T14:47:54.953Z,3.90
2022-11-27T14:50:23.902Z,4.60
2022-11-27T14:52:57.517Z,4.77
2022-11-27T14:55:31.541Z,5.00
2022-11-27T14:58:02.736Z,5.00
2022-11-27T15:00:32.520Z,4.70
2022-11-27T15:03:10.265Z,5.23
2022-11-27T15:05:40.188Z,4.90
2022-11-27T15:08:11.416Z,5.00
2022-11-27T15:10:41.651Z,5.13
2022-11-27T15:13:22.202Z,4.93
2022-11-27T15:16:00.032Z,5.03
2022-11-27T15:18:29.519Z,5.10
2022-11-27T15:20:59.089Z,4.53
2022-11-27T15:23:32.320Z,5.20
2022-11-27T15:26:14.969Z,5.23
2022-11-27T15:28:51.130Z,4.63
2022-11-27T15:31:28.688Z,5.10
2022-11-27T15:34:07.752Z,5.20
2022-11-27T15:36:39.702Z,4.80
2022-11-27T15:39:22.381Z,5.10
2022-11-27T15:42:00.865Z,5.37
2022-11-27T15:44:31.064Z,5.33
2022-11-27T15:47:00.852Z,4.43
2022-11-27T15:49:29.235Z,4.73
2022-11-27T15:51:58.234Z,5.03
2022-11-27T15:54:27.782Z,5.07
2022-11-27T15:56:55.806Z,5.27
2022-11-27T15:59:24.794Z,5.00
2022-11-27T16:01:52.830Z,6.23
2022-11-27T16:04:21.385Z,4.40
2022-11-27T16:06:49.514Z,4.40
2022-11-27T16:09:17.622Z,4.80
2022-11-27T16:11:47.101Z,4.53
2022-11-27T16:14:15.299Z,4.60
2022-11-27T16:16:43.462Z,4.40
2022-11-27T16:19:12.380Z,4.07
2022-11-27T16:21:40.645Z,4.40
2022-11-27T16:24:10.613Z,4.97
2022-11-27T16:26:39.033Z,5.50
2022-11-27T16:29:09.798Z,4.53
2022-11-27T16:31:38.170Z,4.43
2022-11-27T16:34:07.255Z,4.50
2022-11-27T16:36:35.480Z,5.07
2022-11-27T16:39:03.468Z,4.50
2022-11-27T16:41:31.570Z,4.43
2022-11-27T16:43:59.594Z,4.63
2022-11-27T16:46:30.846Z,4.30
2022-11-27T16:49:01.528Z,4.87
2022-11-27T16:51:32.060Z,4.20
2022-11-27T16:54:02.534Z,4.33
2022-11-27T16:56:32.425Z,4.80
2022-11-27T16:59:03.325Z,4.50
2022-11-27T17:01:36.281Z,4.00
2022-11-27T17:04:05.099Z,4.00
2022-11-27T17:06:34.970Z,4.33
2022-11-27T17:09:04.946Z,3.80
2022-11-27T17:11:35.794Z,4.20
2022-11-27T17:14:07.081Z,3.97
2022-11-27T17:16:38.781Z,4.10
2022-11-27T17:19:07.148Z,3.70
2022-11-27T17:21:36.543Z,4.00
2022-11-27T17:24:11.662Z,4.80
2022-11-27T17:26:43.526Z,5.40
2022-11-27T17:29:12.618Z,4.73
2022-11-27T17:31:42.480Z,3.87
2022-11-27T17:34:12.666Z,5.83
2022-11-27T17:36:42.907Z,4.90
2022-11-27T17:39:12.487Z,4.63
2022-11-27T17:41:41.145Z,5.00
2022-11-27T17:44:09.588Z,4.27
2022-11-27T17:46:38.158Z,4.90
2022-11-27T17:49:08.660Z,4.37
2022-11-27T17:51:37.701Z,4.40
2022-11-27T17:54:06.325Z,4.47
2022-11-27T17:56:35.221Z,4.50
2022-11-27T17:59:04.658Z,4.97
2022-11-27T18:01:34.607Z,4.47
2022-11-27T18:04:04.189Z,3.90
2022-11-27T18:06:35.944Z,4.57
2022-11-27T18:09:04.640Z,4.70
2022-11-27T18:11:34.790Z,3.67
2022-11-27T18:14:03.627Z,4.27
2022-11-27T18:16:34.453Z,5.00
2022-11-27T18:19:05.537Z,4.03
2022-11-27T18:21:35.695Z,4.17
2022-11-27T18:27:07.868Z,5.10
2022-11-27T18:29:37.073Z,4.77
2022-11-27T18:32:05.472Z,4.60
2022-11-27T18:34:33.607Z,4.77
2022-11-27T18:37:03.159Z,4.90
2022-11-27T18:39:31.420Z,5.50
2022-11-27T18:41:59.568Z,4.47
2022-11-27T18:44:27.868Z,4.90
2022-11-27T18:46:56.008Z,5.43
2022-11-27T18:49:24.211Z,5.60
2022-11-27T18:51:53.146Z,5.53
2022-11-27T18:54:22.859Z,5.00
2022-11-27T18:56:51.101Z,5.33
2022-11-27T18:59:20.211Z,5.17
2022-11-27T19:01:48.469Z,5.07
2022-11-27T19:04:17.139Z,5.03
2022-11-27T19:06:45.825Z,6.20
2022-11-27T19:09:14.852Z,5.37
2022-11-27T19:11:44.988Z,5.73
2022-11-27T19:14:13.255Z,4.70
2022-11-27T19:16:46.309Z,5.40
2022-11-27T19:22:07.304Z,5.07
2022-11-27T19:24:35.357Z,5.97
2022-11-27T19:27:04.777Z,5.50
2022-11-27T19:29:32.864Z,5.47
2022-11-27T19:32:01.409Z,5.47
2022-11-27T19:34:29.602Z,5.07
2022-11-27T19:36:58.422Z,5.40
2022-11-27T19:39:27.874Z,5.67
2022-11-27T19:41:57.868Z,5.47
2022-11-27T19:44:27.622Z,5.70
2022-11-27T19:46:55.779Z,6.20
2022-11-27T19:49:23.809Z,5.80
2022-11-27T19:51:51.899Z,5.60
2022-11-27T19:54:21.857Z,5.53
2022-11-27T19:56:49.949Z,5.67
2022-11-27T19:59:21.512Z,5.47
2022-11-27T20:01:54.913Z,5.63
2022-11-27T20:04:23.035Z,5.63
2022-11-27T20:06:52.899Z,6.23
2022-11-27T20:09:21.034Z,6.20
2022-11-27T20:11:49.114Z,5.67
2022-11-27T20:14:17.305Z,6.00
2022-11-27T20:16:45.516Z,5.47
2022-11-27T20:19:14.988Z,5.57
2022-11-27T20:21:43.402Z,5.43
2022-11-27T20:24:12.091Z,5.33
2022-11-27T20:26:42.843Z,5.57
2022-11-27T20:29:11.669Z,5.77
2022-11-27T20:31:41.503Z,6.40
2022-11-27T20:34:10.301Z,6.50
2022-11-27T20:36:41.075Z,5.67
2022-11-27T20:39:12.291Z,6.40
2022-11-27T20:41:43.280Z,6.13
2022-11-27T20:44:12.061Z,6.27
2022-11-27T20:46:41.737Z,6.10
2022-11-27T20:49:09.884Z,6.63
2022-11-27T20:51:37.951Z,6.53
2022-11-27T20:54:07.453Z,6.27
2022-11-27T20:56:35.548Z,5.87
2022-11-27T20:59:05.013Z,5.70
2022-11-27T21:01:34.629Z,5.43
2022-11-27T21:04:09.255Z,5.93
2022-11-27T21:06:43.783Z,6.37
2022-11-27T21:09:14.767Z,6.03
2022-11-27T21:11:43.568Z,5.97
2022-11-27T21:14:13.296Z,6.67
2022-11-27T21:16:43.787Z,5.87
2022-11-27T21:19:16.832Z,6.70
2022-11-27T21:21:45.328Z,5.87
2022-11-27T21:24:15.055Z,6.37
2022-11-27T21:26:43.238Z,6.63
2022-11-27T21:29:13.120Z,6.20
2022-11-27T21:31:46.382Z,5.80
2022-11-27T21:34:15.913Z,6.50
2022-11-27T21:36:44.088Z,6.70
2022-11-27T21:39:19.979Z,6.57
2022-11-27T21:41:49.543Z,6.87
2022-11-27T21:44:18.145Z,6.57
2022-11-27T21:46:46.586Z,6.10
2022-11-27T21:49:17.369Z,7.07
2022-11-27T21:51:45.421Z,6.87
2022-11-27T21:54:16.044Z,6.50
2022-11-27T21:56:44.306Z,5.37
2022-11-27T21:59:14.327Z,6.53
2022-11-27T22:01:42.529Z,6.77
2022-11-27T22:04:10.657Z,6.17
2022-11-27T22:06:40.362Z,6.30
2022-11-27T22:09:14.919Z,5.60
2022-11-27T22:11:45.989Z,5.87
2022-11-27T22:14:15.502Z,5.80
2022-11-27T22:16:46.200Z,6.50
2022-11-27T22:19:15.388Z,5.83
2022-11-27T22:21:43.834Z,5.77
2022-11-27T22:24:18.487Z,5.80
2022-11-27T22:26:49.418Z,5.87
2022-11-27T22:29:17.862Z,5.40
2022-11-27T22:31:45.980Z,5.43
2022-11-27T22:34:14.013Z,5.70
2022-11-27T22:36:42.069Z,5.33
2022-11-27T22:39:10.515Z,6.07
2022-11-27T22:41:40.494Z,5.57
2022-11-27T22:44:12.314Z,5.67
2022-11-27T22:46:42.579Z,5.53
2022-11-27T22:49:12.994Z,5.60
2022-11-27T22:51:41.518Z,6.17
2022-11-27T22:54:12.645Z,5.00
2022-11-27T22:56:41.006Z,6.00
2022-11-27T23:02:01.137Z,4.80
2022-11-27T23:04:29.414Z,5.30
2022-11-27T23:06:57.462Z,6.07
2022-11-27T23:09:25.589Z,5.47
2022-11-27T23:11:53.842Z,6.27
2022-11-27T23:14:23.373Z,5.80
2022-11-27T23:16:51.790Z,6.07
2022-11-27T23:19:21.196Z,5.23
2022-11-27T23:21:49.305Z,5.20
2022-11-27T23:24:17.974Z,5.03
2022-11-27T23:26:46.075Z,5.40
2022-11-27T23:29:14.406Z,4.87
2022-11-27T23:31:44.628Z,5.30
2022-11-27T23:34:15.457Z,5.40
2022-11-27T23:36:43.591Z,4.90
2022-11-27T23:39:13.942Z,5.43
2022-11-27T23:41:42.505Z,4.67
2022-11-27T23:44:10.876Z,5.00
2022-11-27T23:46:38.949Z,4.77
2022-11-27T23:49:08.453Z,5.00
2022-11-27T23:51:36.799Z,5.53
2022-11-27T23:54:09.130Z,4.80
2022-11-27T23:56:37.541Z,5.30
2022-11-27T23:59:06.029Z,5.13
